sensor_id;sensor_type;location;lat;lon;timestamp;P1;durP1;ratioP1;P2;durP2;ratioP2
19495;SDS011;9888;48.606;9.630;2022-08-06T00:00:03;17.97;;;12.33;;
19495;SDS011;9888;48.606;9.630;2022-08-06T00:02:36;18.13;;;12.77;;
19495;SDS011;9888;48.606;9.630;2022-08-06T00:05:05;19.43;;;13.10;;
19495;SDS011;9888;48.606;9.630;2022-08-06T00:07:34;16.90;;;11.80;;
19495;SDS011;9888;48.606;9.630;2022-08-06T00:10:04;18.07;;;12.50;;
19495;SDS011;9888;48.606;9.630;2022-08-06T00:12:32;18.27;;;13.20;;
19495;SDS011;9888;48.606;9.630;2022-08-06T00:15:03;17.60;;;13.73;;
19495;SDS011;9888;48.606;9.630;2022-08-06T00:17:33;18.83;;;12.70;;
19495;SDS011;9888;48.606;9.630;2022-08-06T00:20:04;20.03;;;12.40;;
19495;SDS011;9888;48.606;9.630;2022-08-06T00:22:33;18.23;;;12.30;;
19495;SDS011;9888;48.606;9.630;2022-08-06T00:25:12;15.70;;;11.00;;
19495;SDS011;9888;48.606;9.630;2022-08-06T00:27:40;14.17;;;10.57;;
19495;SDS011;9888;48.606;9.630;2022-08-06T00:30:09;17.70;;;11.83;;
19495;SDS011;9888;48.606;9.630;2022-08-06T00:32:37;17.40;;;11.23;;
19495;SDS011;9888;48.606;9.630;2022-08-06T00:35:05;15.43;;;10.60;;
19495;SDS011;9888;48.606;9.630;2022-08-06T00:37:34;16.50;;;10.17;;
19495;SDS011;9888;48.606;9.630;2022-08-06T00:40:02;13.17;;;10.53;;
19495;SDS011;9888;48.606;9.630;2022-08-06T00:42:29;14.80;;;10.47;;
19495;SDS011;9888;48.606;9.630;2022-08-06T00:44:57;15.70;;;10.60;;
19495;SDS011;9888;48.606;9.630;2022-08-06T00:47:26;16.37;;;10.20;;
19495;SDS011;9888;48.606;9.630;2022-08-06T00:49:56;14.80;;;9.93;;
19495;SDS011;9888;48.606;9.630;2022-08-06T00:52:27;14.40;;;9.93;;
19495;SDS011;9888;48.606;9.630;2022-08-06T00:54:55;14.30;;;10.10;;
19495;SDS011;9888;48.606;9.630;2022-08-06T00:57:24;15.97;;;9.50;;
19495;SDS011;9888;48.606;9.630;2022-08-06T00:59:53;14.20;;;10.20;;
19495;SDS011;9888;48.606;9.630;2022-08-06T01:02:20;13.40;;;8.97;;
19495;SDS011;9888;48.606;9.630;2022-08-06T01:04:47;12.17;;;8.80;;
19495;SDS011;9888;48.606;9.630;2022-08-06T01:07:15;12.17;;;7.10;;
19495;SDS011;9888;48.606;9.630;2022-08-06T01:09:45;10.83;;;7.07;;
19495;SDS011;9888;48.606;9.630;2022-08-06T01:12:14;12.03;;;7.60;;
19495;SDS011;9888;48.606;9.630;2022-08-06T01:14:43;10.83;;;6.47;;
19495;SDS011;9888;48.606;9.630;2022-08-06T01:17:22;10.93;;;5.13;;
19495;SDS011;9888;48.606;9.630;2022-08-06T01:28:05;10.00;;;5.37;;
19495;SDS011;9888;48.606;9.630;2022-08-06T01:30:46;10.43;;;5.50;;
19495;SDS011;9888;48.606;9.630;2022-08-06T01:33:25;8.00;;;4.80;;
19495;SDS011;9888;48.606;9.630;2022-08-06T01:35:57;13.80;;;5.50;;
19495;SDS011;9888;48.606;9.630;2022-08-06T01:38:33;8.60;;;5.10;;
19495;SDS011;9888;48.606;9.630;2022-08-06T01:41:08;9.57;;;5.10;;
19495;SDS011;9888;48.606;9.630;2022-08-06T01:44:09;8.40;;;5.13;;
19495;SDS011;9888;48.606;9.630;2022-08-06T01:46:41;9.70;;;4.87;;
19495;SDS011;9888;48.606;9.630;2022-08-06T01:49:23;10.27;;;5.00;;
19495;SDS011;9888;48.606;9.630;2022-08-06T01:51:54;8.03;;;5.20;;
19495;SDS011;9888;48.606;9.630;2022-08-06T01:54:28;10.00;;;5.30;;
19495;SDS011;9888;48.606;9.630;2022-08-06T01:57:01;9.77;;;5.20;;
19495;SDS011;9888;48.606;9.630;2022-08-06T01:59:38;9.30;;;5.37;;
19495;SDS011;9888;48.606;9.630;2022-08-06T02:02:16;8.73;;;5.43;;
19495;SDS011;9888;48.606;9.630;2022-08-06T02:04:47;9.97;;;5.47;;
19495;SDS011;9888;48.606;9.630;2022-08-06T02:07:19;8.83;;;5.60;;
19495;SDS011;9888;48.606;9.630;2022-08-06T02:09:50;8.60;;;5.20;;
19495;SDS011;9888;48.606;9.630;2022-08-06T02:12:20;8.50;;;5.17;;
19495;SDS011;9888;48.606;9.630;2022-08-06T02:14:55;9.17;;;5.33;;
19495;SDS011;9888;48.606;9.630;2022-08-06T02:20:21;13.80;;;5.80;;
19495;SDS011;9888;48.606;9.630;2022-08-06T02:22:53;8.90;;;5.73;;
19495;SDS011;9888;48.606;9.630;2022-08-06T02:25:21;9.13;;;5.87;;
19495;SDS011;9888;48.606;9.630;2022-08-06T02:27:50;10.07;;;6.23;;
19495;SDS011;9888;48.606;9.630;2022-08-06T02:30:19;8.10;;;5.37;;
19495;SDS011;9888;48.606;9.630;2022-08-06T02:32:48;8.87;;;5.90;;
19495;SDS011;9888;48.606;9.630;2022-08-06T02:35:17;10.97;;;5.30;;
19495;SDS011;9888;48.606;9.630;2022-08-06T02:37:55;10.33;;;6.20;;
19495;SDS011;9888;48.606;9.630;2022-08-06T02:40:46;10.07;;;5.47;;
19495;SDS011;9888;48.606;9.630;2022-08-06T02:43:28;9.03;;;5.83;;
19495;SDS011;9888;48.606;9.630;2022-08-06T02:46:21;10.37;;;5.60;;
19495;SDS011;9888;48.606;9.630;2022-08-06T02:51:29;8.90;;;5.60;;
19495;SDS011;9888;48.606;9.630;2022-08-06T02:54:06;9.40;;;5.77;;
19495;SDS011;9888;48.606;9.630;2022-08-06T02:56:40;8.93;;;5.50;;
19495;SDS011;9888;48.606;9.630;2022-08-06T02:59:16;11.13;;;6.23;;
19495;SDS011;9888;48.606;9.630;2022-08-06T03:01:52;9.30;;;5.50;;
19495;SDS011;9888;48.606;9.630;2022-08-06T03:04:24;10.33;;;5.50;;
19495;SDS011;9888;48.606;9.630;2022-08-06T03:06:57;9.30;;;6.00;;
19495;SDS011;9888;48.606;9.630;2022-08-06T03:09:28;9.07;;;5.50;;
19495;SDS011;9888;48.606;9.630;2022-08-06T03:11:56;8.60;;;5.43;;
19495;SDS011;9888;48.606;9.630;2022-08-06T03:14:27;11.20;;;5.70;;
19495;SDS011;9888;48.606;9.630;2022-08-06T03:16:57;8.93;;;5.60;;
19495;SDS011;9888;48.606;9.630;2022-08-06T03:19:26;10.50;;;5.63;;
19495;SDS011;9888;48.606;9.630;2022-08-06T03:21:55;9.27;;;5.43;;
19495;SDS011;9888;48.606;9.630;2022-08-06T03:24:24;8.30;;;5.40;;
19495;SDS011;9888;48.606;9.630;2022-08-06T03:26:53;15.90;;;5.90;;
19495;SDS011;9888;48.606;9.630;2022-08-06T03:29:26;8.90;;;5.83;;
19495;SDS011;9888;48.606;9.630;2022-08-06T03:31:54;9.90;;;5.90;;
19495;SDS011;9888;48.606;9.630;2022-08-06T03:34:24;10.53;;;5.93;;
19495;SDS011;9888;48.606;9.630;2022-08-06T03:36:52;9.70;;;5.50;;
19495;SDS011;9888;48.606;9.630;2022-08-06T03:39:23;9.40;;;5.43;;
19495;SDS011;9888;48.606;9.630;2022-08-06T03:41:52;9.67;;;5.70;;
19495;SDS011;9888;48.606;9.630;2022-08-06T03:44:21;9.50;;;5.33;;
19495;SDS011;9888;48.606;9.630;2022-08-06T03:46:54;7.57;;;4.73;;
19495;SDS011;9888;48.606;9.630;2022-08-06T03:52:36;9.93;;;4.90;;
19495;SDS011;9888;48.606;9.630;2022-08-06T03:55:16;9.47;;;5.07;;
19495;SDS011;9888;48.606;9.630;2022-08-06T03:57:54;8.77;;;5.10;;
19495;SDS011;9888;48.606;9.630;2022-08-06T04:00:24;10.33;;;5.50;;
19495;SDS011;9888;48.606;9.630;2022-08-06T04:02:56;9.67;;;5.40;;
19495;SDS011;9888;48.606;9.630;2022-08-06T04:05:27;10.43;;;5.17;;
19495;SDS011;9888;48.606;9.630;2022-08-06T04:07:57;8.90;;;5.20;;
19495;SDS011;9888;48.606;9.630;2022-08-06T04:10:30;8.67;;;4.77;;
19495;SDS011;9888;48.606;9.630;2022-08-06T04:13:08;10.40;;;4.83;;
19495;SDS011;9888;48.606;9.630;2022-08-06T04:15:38;13.30;;;5.67;;
19495;SDS011;9888;48.606;9.630;2022-08-06T04:18:08;10.70;;;5.13;;
19495;SDS011;9888;48.606;9.630;2022-08-06T04:20:41;13.80;;;5.17;;
19495;SDS011;9888;48.606;9.630;2022-08-06T04:23:13;9.47;;;4.70;;
19495;SDS011;9888;48.606;9.630;2022-08-06T04:25:42;11.80;;;4.80;;
19495;SDS011;9888;48.606;9.630;2022-08-06T04:28:17;12.10;;;5.60;;
19495;SDS011;9888;48.606;9.630;2022-08-06T04:30:48;8.70;;;4.60;;
19495;SDS011;9888;48.606;9.630;2022-08-06T04:33:17;10.27;;;4.90;;
19495;SDS011;9888;48.606;9.630;2022-08-06T04:35:50;8.90;;;4.40;;
19495;SDS011;9888;48.606;9.630;2022-08-06T04:38:20;13.43;;;4.97;;
19495;SDS011;9888;48.606;9.630;2022-08-06T04:40:50;10.50;;;5.30;;
19495;SDS011;9888;48.606;9.630;2022-08-06T04:43:23;12.27;;;4.90;;
19495;SDS011;9888;48.606;9.630;2022-08-06T04:45:51;21.97;;;5.60;;
19495;SDS011;9888;48.606;9.630;2022-08-06T04:48:21;10.97;;;4.47;;
19495;SDS011;9888;48.606;9.630;2022-08-06T04:50:50;7.77;;;4.47;;
19495;SDS011;9888;48.606;9.630;2022-08-06T04:53:19;10.33;;;4.30;;
19495;SDS011;9888;48.606;9.630;2022-08-06T04:55:48;8.60;;;4.80;;
19495;SDS011;9888;48.606;9.630;2022-08-06T04:58:16;11.03;;;5.20;;
19495;SDS011;9888;48.606;9.630;2022-08-06T05:00:47;21.30;;;5.57;;
19495;SDS011;9888;48.606;9.630;2022-08-06T05:03:16;11.53;;;5.00;;
19495;SDS011;9888;48.606;9.630;2022-08-06T05:06:05;12.03;;;5.87;;
19495;SDS011;9888;48.606;9.630;2022-08-06T05:15:25;14.63;;;5.87;;
19495;SDS011;9888;48.606;9.630;2022-08-06T05:18:03;7.93;;;4.60;;
19495;SDS011;9888;48.606;9.630;2022-08-06T05:37:39;8.30;;;4.60;;
19495;SDS011;9888;48.606;9.630;2022-08-06T05:40:11;9.50;;;5.40;;
19495;SDS011;9888;48.606;9.630;2022-08-06T05:46:21;9.80;;;5.23;;
19495;SDS011;9888;48.606;9.630;2022-08-06T07:20:32;18.70;;;7.10;;
19495;SDS011;9888;48.606;9.630;2022-08-06T07:23:54;12.20;;;6.60;;
19495;SDS011;9888;48.606;9.630;2022-08-06T07:44:07;11.00;;;7.00;;
19495;SDS011;9888;48.606;9.630;2022-08-06T08:24:10;11.00;;;6.20;;
19495;SDS011;9888;48.606;9.630;2022-08-06T09:45:32;9.97;;;6.13;;
19495;SDS011;9888;48.606;9.630;2022-08-06T09:49:09;8.00;;;5.70;;
19495;SDS011;9888;48.606;9.630;2022-08-06T09:51:48;12.00;;;5.83;;
19495;SDS011;9888;48.606;9.630;2022-08-06T10:21:33;12.23;;;4.90;;
19495;SDS011;9888;48.606;9.630;2022-08-06T10:42:02;12.00;;;5.00;;
19495;SDS011;9888;48.606;9.630;2022-08-06T10:44:31;7.10;;;4.87;;
19495;SDS011;9888;48.606;9.630;2022-08-06T10:47:04;6.93;;;4.43;;
19495;SDS011;9888;48.606;9.630;2022-08-06T10:49:35;7.63;;;4.70;;
19495;SDS011;9888;48.606;9.630;2022-08-06T10:52:06;10.40;;;4.57;;
19495;SDS011;9888;48.606;9.630;2022-08-06T10:54:39;11.40;;;4.77;;
19495;SDS011;9888;48.606;9.630;2022-08-06T10:57:08;9.90;;;4.40;;
19495;SDS011;9888;48.606;9.630;2022-08-06T10:59:43;11.13;;;4.50;;
19495;SDS011;9888;48.606;9.630;2022-08-06T11:09:18;14.60;;;4.30;;
19495;SDS011;9888;48.606;9.630;2022-08-06T11:14:49;6.77;;;4.60;;
19495;SDS011;9888;48.606;9.630;2022-08-06T11:17:23;7.23;;;4.40;;
19495;SDS011;9888;48.606;9.630;2022-08-06T11:19:51;7.00;;;4.20;;
19495;SDS011;9888;48.606;9.630;2022-08-06T11:25:42;7.93;;;4.10;;
19495;SDS011;9888;48.606;9.630;2022-08-06T11:31:02;6.77;;;4.40;;
19495;SDS011;9888;48.606;9.630;2022-08-06T11:36:23;6.20;;;3.20;;
19495;SDS011;9888;48.606;9.630;2022-08-06T11:41:25;8.80;;;4.10;;
19495;SDS011;9888;48.606;9.630;2022-08-06T11:44:12;7.17;;;3.53;;
19495;SDS011;9888;48.606;9.630;2022-08-06T11:46:46;6.83;;;3.57;;
19495;SDS011;9888;48.606;9.630;2022-08-06T11:49:18;7.10;;;3.73;;
19495;SDS011;9888;48.606;9.630;2022-08-06T11:51:54;8.83;;;3.60;;
19495;SDS011;9888;48.606;9.630;2022-08-06T11:57:48;8.23;;;3.40;;
19495;SDS011;9888;48.606;9.630;2022-08-06T12:01:01;12.67;;;3.97;;
19495;SDS011;9888;48.606;9.630;2022-08-06T12:03:43;6.53;;;3.33;;
19495;SDS011;9888;48.606;9.630;2022-08-06T12:06:46;5.90;;;3.40;;
19495;SDS011;9888;48.606;9.630;2022-08-06T12:09:21;7.70;;;3.60;;
19495;SDS011;9888;48.606;9.630;2022-08-06T12:18:00;6.57;;;3.37;;
19495;SDS011;9888;48.606;9.630;2022-08-06T12:23:52;7.83;;;3.17;;
19495;SDS011;9888;48.606;9.630;2022-08-06T12:26:24;6.53;;;3.83;;
19495;SDS011;9888;48.606;9.630;2022-08-06T12:29:17;6.50;;;3.30;;
19495;SDS011;9888;48.606;9.630;2022-08-06T22:12:37;10.80;;;7.00;;
19495;SDS011;9888;48.606;9.630;2022-08-06T22:15:07;10.43;;;6.10;;
19495;SDS011;9888;48.606;9.630;2022-08-06T22:17:38;10.93;;;5.93;;
19495;SDS011;9888;48.606;9.630;2022-08-06T22:20:06;9.33;;;5.93;;
19495;SDS011;9888;48.606;9.630;2022-08-06T22:22:35;8.77;;;5.70;;
19495;SDS011;9888;48.606;9.630;2022-08-06T22:25:03;8.80;;;6.10;;
19495;SDS011;9888;48.606;9.630;2022-08-06T22:27:34;8.60;;;5.27;;
19495;SDS011;9888;48.606;9.630;2022-08-06T22:30:03;9.90;;;6.33;;
19495;SDS011;9888;48.606;9.630;2022-08-06T22:32:50;11.43;;;5.63;;
19495;SDS011;9888;48.606;9.630;2022-08-06T22:35:17;8.67;;;5.80;;
19495;SDS011;9888;48.606;9.630;2022-08-06T22:37:45;8.93;;;6.13;;
19495;SDS011;9888;48.606;9.630;2022-08-06T22:40:14;9.20;;;5.50;;
19495;SDS011;9888;48.606;9.630;2022-08-06T22:42:43;11.00;;;5.87;;
19495;SDS011;9888;48.606;9.630;2022-08-06T22:45:12;9.03;;;5.73;;
19495;SDS011;9888;48.606;9.630;2022-08-06T22:47:40;9.80;;;5.90;;
19495;SDS011;9888;48.606;9.630;2022-08-06T22:50:07;10.40;;;5.70;;
19495;SDS011;9888;48.606;9.630;2022-08-06T22:52:43;10.63;;;6.00;;
19495;SDS011;9888;48.606;9.630;2022-08-06T22:55:10;10.00;;;5.97;;
19495;SDS011;9888;48.606;9.630;2022-08-06T22:57:38;10.50;;;6.37;;
19495;SDS011;9888;48.606;9.630;2022-08-06T23:06:52;9.37;;;5.67;;
19495;SDS011;9888;48.606;9.630;2022-08-06T23:12:34;9.27;;;5.70;;
19495;SDS011;9888;48.606;9.630;2022-08-06T23:21:48;10.60;;;6.27;;
19495;SDS011;9888;48.606;9.630;2022-08-06T23:24:15;10.80;;;6.07;;
19495;SDS011;9888;48.606;9.630;2022-08-06T23:26:42;10.23;;;6.40;;
19495;SDS011;9888;48.606;9.630;2022-08-06T23:29:09;11.13;;;5.63;;
19495;SDS011;9888;48.606;9.630;2022-08-06T23:31:46;10.97;;;6.00;;
19495;SDS011;9888;48.606;9.630;2022-08-06T23:34:16;10.33;;;6.50;;
19495;SDS011;9888;48.606;9.630;2022-08-06T23:36:43;9.50;;;6.00;;
19495;SDS011;9888;48.606;9.630;2022-08-06T23:39:11;9.27;;;5.80;;
19495;SDS011;9888;48.606;9.630;2022-08-06T23:41:38;10.30;;;6.50;;
19495;SDS011;9888;48.606;9.630;2022-08-06T23:44:07;9.83;;;6.37;;
19495;SDS011;9888;48.606;9.630;2022-08-06T23:46:36;10.70;;;6.40;;
19495;SDS011;9888;48.606;9.630;2022-08-06T23:49:04;13.30;;;6.80;;
19495;SDS011;9888;48.606;9.630;2022-08-06T23:51:31;9.90;;;6.47;;
19495;SDS011;9888;48.606;9.630;2022-08-06T23:53:59;10.17;;;6.70;;
19495;SDS011;9888;48.606;9.630;2022-08-06T23:56:26;10.10;;;7.17;;
19495;SDS011;9888;48.606;9.630;2022-08-06T23:58:55;10.67;;;7.30;;
